createdAt,value
2017-11-03T00:00:36.051Z,7.07
2017-11-03T00:03:04.686Z,7.30
2017-11-03T00:05:33.695Z,7.17
2017-11-03T00:08:01.191Z,7.90
2017-11-03T00:10:28.818Z,7.90
2017-11-03T00:12:56.316Z,7.13
2017-11-03T00:15:23.815Z,7.50
2017-11-03T00:17:51.326Z,7.10
2017-11-03T00:20:19.042Z,8.30
2017-11-03T00:22:46.579Z,6.80
2017-11-03T00:25:15.795Z,7.43
2017-11-03T00:27:43.445Z,7.20
2017-11-03T00:30:11.522Z,8.73
2017-11-03T00:32:39.539Z,7.20
2017-11-03T00:35:09.547Z,7.10
2017-11-03T00:37:37.821Z,7.00
2017-11-03T00:40:06.091Z,7.77
2017-11-03T00:42:33.699Z,6.80
2017-11-03T00:45:01.191Z,6.73
2017-11-03T00:47:28.703Z,6.87
2017-11-03T00:49:56.203Z,7.80
2017-11-03T00:52:24.489Z,7.20
2017-11-03T00:54:53.338Z,7.70
2017-11-03T00:57:20.863Z,6.97
2017-11-03T00:59:48.377Z,7.90
2017-11-03T01:02:15.986Z,8.93
2017-11-03T01:04:44.272Z,7.27
2017-11-03T01:07:11.936Z,7.70
2017-11-03T01:09:39.584Z,7.37
2017-11-03T01:12:07.111Z,7.07
2017-11-03T01:14:35.376Z,7.00
2017-11-03T01:17:02.904Z,7.70
2017-11-03T01:19:30.407Z,7.83
2017-11-03T01:21:58.089Z,8.07
2017-11-03T01:24:26.367Z,8.60
2017-11-03T01:26:53.888Z,7.30
2017-11-03T01:29:22.519Z,7.70
2017-11-03T01:31:50.444Z,7.93
2017-11-03T01:34:19.076Z,7.43
2017-11-03T01:36:47.511Z,8.20
2017-11-03T01:39:15.596Z,7.57
2017-11-03T01:41:43.115Z,8.80
2017-11-03T01:44:12.044Z,8.87
2017-11-03T01:46:39.560Z,8.43
2017-11-03T01:49:07.068Z,8.47
2017-11-03T01:51:35.359Z,8.53
2017-11-03T01:54:02.970Z,9.07
2017-11-03T01:56:30.622Z,10.70
2017-11-03T01:58:58.124Z,9.73
2017-11-03T02:01:25.649Z,10.43
2017-11-03T02:03:53.202Z,9.20
2017-11-03T02:06:21.111Z,8.60
2017-11-03T02:08:48.616Z,8.27
2017-11-03T02:11:16.916Z,8.10
2017-11-03T02:13:44.439Z,8.37
2017-11-03T02:16:11.959Z,8.07
2017-11-03T02:18:39.452Z,8.67
2017-11-03T02:21:07.019Z,8.40
2017-11-03T02:23:34.526Z,7.70
2017-11-03T02:26:02.032Z,7.10
2017-11-03T02:28:30.310Z,8.13
2017-11-03T02:30:57.808Z,7.77
2017-11-03T02:33:27.807Z,8.03
2017-11-03T02:35:56.148Z,8.60
2017-11-03T02:38:23.649Z,7.50
2017-11-03T02:40:52.666Z,8.70
2017-11-03T02:43:21.727Z,7.60
2017-11-03T02:45:49.237Z,8.27
2017-11-03T02:48:16.784Z,7.97
2017-11-03T02:50:44.289Z,8.00
2017-11-03T02:53:11.816Z,8.17
2017-11-03T02:55:39.332Z,8.20
2017-11-03T02:58:06.851Z,8.43
2017-11-03T03:00:34.759Z,8.13
2017-11-03T03:03:03.047Z,8.83
2017-11-03T03:05:30.599Z,8.17
2017-11-03T03:07:58.116Z,7.67
2017-11-03T03:10:25.715Z,9.17
2017-11-03T03:12:53.370Z,9.03
2017-11-03T03:15:21.657Z,8.90
2017-11-03T03:17:49.945Z,8.93
2017-11-03T03:20:17.451Z,9.07
2017-11-03T03:22:45.864Z,8.83
2017-11-03T03:25:13.911Z,8.43
2017-11-03T03:27:41.579Z,9.50
2017-11-03T03:30:10.440Z,9.80
2017-11-03T03:32:37.963Z,9.67
2017-11-03T03:35:06.404Z,9.47
2017-11-03T03:37:33.932Z,9.70
2017-11-03T03:40:02.579Z,9.80
2017-11-03T03:42:30.111Z,10.60
2017-11-03T03:44:57.626Z,10.53
2017-11-03T03:47:25.155Z,10.33
2017-11-03T03:49:52.760Z,10.67
2017-11-03T03:52:20.288Z,11.60
2017-11-03T03:54:48.559Z,10.73
2017-11-03T03:57:17.585Z,10.57
2017-11-03T03:59:46.057Z,10.97
2017-11-03T04:02:13.587Z,10.57
2017-11-03T04:04:41.863Z,10.00
2017-11-03T04:07:09.390Z,10.80
2017-11-03T04:09:37.355Z,10.57
2017-11-03T04:12:04.964Z,10.23
2017-11-03T04:14:32.470Z,9.93
2017-11-03T04:16:59.994Z,9.20
2017-11-03T04:19:28.263Z,10.63
2017-11-03T04:21:55.785Z,10.80
2017-11-03T04:24:23.289Z,11.10
2017-11-03T04:26:50.826Z,10.50
2017-11-03T04:29:18.383Z,10.83
2017-11-03T04:31:46.016Z,9.73
2017-11-03T04:34:14.866Z,10.00
2017-11-03T04:36:43.891Z,9.93
2017-11-03T04:39:12.155Z,9.90
2017-11-03T04:41:40.527Z,9.60
2017-11-03T04:44:08.039Z,11.97
2017-11-03T04:46:35.681Z,10.70
2017-11-03T04:49:03.744Z,9.57
2017-11-03T04:51:31.372Z,10.07
2017-11-03T04:53:59.477Z,10.27
2017-11-03T04:56:26.983Z,10.37
2017-11-03T04:58:55.478Z,9.87
2017-11-03T05:01:23.739Z,9.70
2017-11-03T05:03:51.668Z,11.27
2017-11-03T05:06:19.559Z,9.77
2017-11-03T05:08:48.275Z,9.77
2017-11-03T05:11:15.940Z,10.20
2017-11-03T05:13:44.227Z,10.93
2017-11-03T05:16:12.120Z,11.50
2017-11-03T05:18:39.726Z,11.20
2017-11-03T05:21:07.715Z,9.90
2017-11-03T05:23:35.362Z,10.70
2017-11-03T05:26:03.018Z,9.37
2017-11-03T05:28:31.899Z,9.60
2017-11-03T05:30:59.564Z,10.50
2017-11-03T05:33:27.086Z,10.87
2017-11-03T05:35:54.679Z,12.07
2017-11-03T05:38:22.199Z,10.50
2017-11-03T05:40:49.695Z,10.00
2017-11-03T05:43:17.223Z,11.60
2017-11-03T05:45:44.899Z,10.47
2017-11-03T05:48:14.432Z,11.30
2017-11-03T05:50:42.788Z,11.73
2017-11-03T05:53:10.707Z,13.10
2017-11-03T05:55:38.983Z,10.70
2017-11-03T05:58:06.691Z,10.43
2017-11-03T06:00:34.191Z,10.70
2017-11-03T06:03:01.804Z,10.27
2017-11-03T06:05:29.307Z,11.30
2017-11-03T06:07:56.904Z,11.10
2017-11-03T06:10:24.411Z,11.03
2017-11-03T06:12:51.943Z,11.63
2017-11-03T06:15:19.446Z,11.13
2017-11-03T06:17:48.474Z,11.90
2017-11-03T06:20:15.989Z,12.30
2017-11-03T06:22:43.682Z,11.83
2017-11-03T06:25:11.754Z,12.20
2017-11-03T06:27:39.410Z,12.10
2017-11-03T06:30:07.775Z,11.33
2017-11-03T06:32:35.743Z,12.60
2017-11-03T06:35:04.004Z,12.83
2017-11-03T06:37:31.683Z,12.73
2017-11-03T06:39:59.190Z,11.67
2017-11-03T06:42:26.820Z,11.50
2017-11-03T06:44:54.321Z,11.93
2017-11-03T06:47:22.731Z,13.30
2017-11-03T06:49:50.400Z,12.30
2017-11-03T06:52:17.947Z,12.80
2017-11-03T06:54:45.450Z,14.23
2017-11-03T06:57:12.963Z,12.20
2017-11-03T06:59:41.423Z,12.60
2017-11-03T07:02:08.923Z,12.77
2017-11-03T07:04:37.367Z,14.03
2017-11-03T07:07:05.028Z,12.80
2017-11-03T07:09:32.552Z,13.40
2017-11-03T07:12:00.828Z,13.87
2017-11-03T07:14:29.127Z,14.60
2017-11-03T07:16:57.403Z,12.47
2017-11-03T07:19:26.068Z,13.57
2017-11-03T07:21:53.639Z,13.57
2017-11-03T07:24:21.140Z,14.37
2017-11-03T07:26:48.639Z,12.87
2017-11-03T07:29:16.925Z,13.90
2017-11-03T07:31:45.563Z,14.03
2017-11-03T07:34:13.984Z,13.83
2017-11-03T07:36:42.248Z,13.50
2017-11-03T07:39:09.895Z,13.73
2017-11-03T07:41:38.767Z,14.13
2017-11-03T07:44:06.670Z,14.50
2017-11-03T07:46:34.315Z,13.27
2017-11-03T07:49:01.939Z,14.03
2017-11-03T07:51:29.843Z,13.40
2017-11-03T07:53:57.356Z,13.30
2017-11-03T07:56:24.855Z,14.90
2017-11-03T07:58:53.127Z,14.80
2017-11-03T08:01:20.684Z,13.77
2017-11-03T08:03:48.342Z,14.13
2017-11-03T08:06:16.243Z,14.83
2017-11-03T08:08:43.851Z,15.10
2017-11-03T08:11:12.128Z,13.40
2017-11-03T08:13:39.740Z,13.87
2017-11-03T08:16:08.885Z,13.10
2017-11-03T08:18:36.789Z,13.20
2017-11-03T08:21:04.335Z,13.40
2017-11-03T08:23:31.835Z,13.53
2017-11-03T08:25:59.525Z,13.87
2017-11-03T08:28:27.171Z,12.87
2017-11-03T08:30:55.079Z,12.60
2017-11-03T08:33:22.782Z,12.67
2017-11-03T08:35:50.762Z,12.83
2017-11-03T08:38:18.663Z,13.23
2017-11-03T08:40:47.103Z,12.97
2017-11-03T08:43:15.011Z,14.07
2017-11-03T08:45:43.447Z,13.50
2017-11-03T08:48:11.839Z,13.60
2017-11-03T08:50:39.337Z,13.10
2017-11-03T08:53:08.475Z,12.73
2017-11-03T08:55:36.368Z,14.67
2017-11-03T08:58:03.875Z,14.30
2017-11-03T09:00:31.443Z,12.00
2017-11-03T09:02:58.975Z,14.30
2017-11-03T09:05:27.243Z,12.60
2017-11-03T09:07:55.527Z,12.87
2017-11-03T09:10:23.801Z,13.30
2017-11-03T09:12:52.071Z,14.33
2017-11-03T09:15:20.348Z,13.70
2017-11-03T09:17:48.624Z,13.50
2017-11-03T09:20:16.523Z,14.37
2017-11-03T09:22:44.426Z,15.90
2017-11-03T09:25:12.132Z,13.67
2017-11-03T09:27:39.636Z,14.40
2017-11-03T09:30:07.147Z,12.53
2017-11-03T09:32:35.895Z,13.27
2017-11-03T09:35:04.616Z,13.17
2017-11-03T09:37:32.116Z,13.37
2017-11-03T09:39:59.614Z,12.37
2017-11-03T09:42:27.123Z,13.37
2017-11-03T09:44:54.627Z,12.90
2017-11-03T09:47:22.894Z,14.00
2017-11-03T09:49:50.568Z,13.50
2017-11-03T09:52:18.075Z,13.97
2017-11-03T09:54:45.579Z,14.63
2017-11-03T09:57:13.079Z,14.30
2017-11-03T09:59:40.574Z,12.67
2017-11-03T10:02:08.836Z,12.73
2017-11-03T10:04:36.507Z,12.50
2017-11-03T10:07:04.002Z,12.80
2017-11-03T10:09:31.511Z,13.10
2017-11-03T10:11:59.071Z,13.10
2017-11-03T10:14:26.967Z,12.40
2017-11-03T10:16:54.471Z,13.20
2017-11-03T10:19:23.223Z,12.60
2017-11-03T10:21:50.745Z,11.70
2017-11-03T10:24:18.246Z,11.57
2017-11-03T10:26:47.276Z,13.50
2017-11-03T10:29:14.804Z,12.37
2017-11-03T10:31:42.298Z,11.63
2017-11-03T10:34:10.933Z,11.60
2017-11-03T10:36:38.823Z,10.97
2017-11-03T10:39:07.087Z,11.80
2017-11-03T10:41:35.354Z,11.60
2017-11-03T10:44:03.631Z,11.70
2017-11-03T10:46:31.155Z,11.87
2017-11-03T10:48:58.660Z,11.83
2017-11-03T10:51:26.175Z,13.70
2017-11-03T10:53:53.675Z,12.13
2017-11-03T10:56:21.575Z,13.37
2017-11-03T10:58:49.087Z,13.97
2017-11-03T11:01:16.601Z,13.97
2017-11-03T11:03:44.213Z,13.87
2017-11-03T11:06:11.719Z,12.20
2017-11-03T11:08:39.226Z,14.63
2017-11-03T11:11:07.123Z,12.70
2017-11-03T11:13:35.458Z,12.27
2017-11-03T11:16:02.967Z,11.13
2017-11-03T11:18:31.846Z,12.33
2017-11-03T11:20:59.352Z,12.33
2017-11-03T11:23:27.253Z,12.80
2017-11-03T11:25:54.751Z,12.00
2017-11-03T11:28:22.255Z,10.83
2017-11-03T11:30:49.768Z,11.63
2017-11-03T11:33:17.767Z,14.00
2017-11-03T11:35:45.267Z,13.97
2017-11-03T11:38:12.863Z,11.80
2017-11-03T11:40:40.519Z,12.20
2017-11-03T11:43:08.019Z,12.37
2017-11-03T11:45:36.673Z,13.63
2017-11-03T11:48:04.181Z,12.47
2017-11-03T11:50:31.778Z,12.00
2017-11-03T11:52:59.287Z,12.57
2017-11-03T11:55:26.793Z,12.83
2017-11-03T11:57:55.069Z,11.87
2017-11-03T12:00:22.588Z,12.50
2017-11-03T12:02:50.269Z,12.33
2017-11-03T12:05:17.779Z,12.03
2017-11-03T12:07:46.056Z,12.70
2017-11-03T12:10:13.957Z,11.40
2017-11-03T12:12:42.237Z,9.33
2017-11-03T12:15:09.800Z,10.70
2017-11-03T12:17:38.072Z,12.53
2017-11-03T12:20:05.563Z,11.67
2017-11-03T12:22:33.066Z,11.67
2017-11-03T12:25:01.331Z,11.27
2017-11-03T12:27:29.611Z,12.47
2017-11-03T12:29:57.884Z,11.73
2017-11-03T12:32:25.447Z,10.70
2017-11-03T12:34:52.952Z,11.20
2017-11-03T12:37:20.468Z,11.40
2017-11-03T12:39:47.967Z,9.30
2017-11-03T12:42:16.826Z,10.80
2017-11-03T12:44:44.372Z,11.50
2017-11-03T12:47:11.872Z,12.47
2017-11-03T12:49:39.467Z,8.83
2017-11-03T12:52:06.977Z,9.67
2017-11-03T12:54:34.484Z,9.90
2017-11-03T12:57:01.983Z,9.80
2017-11-03T12:59:29.708Z,11.33
2017-11-03T13:01:57.207Z,10.30
2017-11-03T13:04:24.702Z,11.97
2017-11-03T13:06:53.897Z,12.00
2017-11-03T13:09:21.405Z,10.37
2017-11-03T13:11:49.856Z,10.20
2017-11-03T13:14:17.387Z,11.50
2017-11-03T13:16:44.895Z,10.10
2017-11-03T13:19:13.009Z,10.40
2017-11-03T13:21:40.603Z,11.00
2017-11-03T13:24:08.124Z,11.03
2017-11-03T13:26:35.635Z,10.30
2017-11-03T13:29:03.924Z,11.27
2017-11-03T13:31:32.203Z,11.53
2017-11-03T13:34:00.836Z,10.23
2017-11-03T13:36:28.347Z,10.00
2017-11-03T13:38:56.736Z,9.93
2017-11-03T13:41:24.398Z,9.60
2017-11-03T13:43:52.055Z,9.40
2017-11-03T13:46:19.562Z,10.93
2017-11-03T13:48:47.075Z,9.83
2017-11-03T13:51:14.635Z,9.30
2017-11-03T13:53:42.135Z,9.13
2017-11-03T13:56:09.626Z,9.37
2017-11-03T13:58:37.138Z,8.73
2017-11-03T14:01:05.062Z,8.83
2017-11-03T14:03:32.566Z,8.03
2017-11-03T14:06:00.059Z,8.27
2017-11-03T14:08:27.556Z,8.93
2017-11-03T14:10:55.055Z,8.07
2017-11-03T14:13:22.551Z,7.60
2017-11-03T14:15:50.096Z,9.37
2017-11-03T14:18:18.756Z,8.80
2017-11-03T14:20:46.255Z,8.57
2017-11-03T14:23:14.182Z,9.90
2017-11-03T14:25:41.687Z,8.67
2017-11-03T14:28:09.191Z,9.37
2017-11-03T14:30:36.698Z,8.20
2017-11-03T14:33:04.201Z,7.80
2017-11-03T14:35:31.715Z,8.50
2017-11-03T14:37:59.212Z,8.10
2017-11-03T14:40:28.056Z,7.97
2017-11-03T14:42:55.611Z,8.70
2017-11-03T14:45:23.514Z,7.60
2017-11-03T14:47:51.415Z,8.40
2017-11-03T14:50:18.938Z,7.70
2017-11-03T14:52:46.435Z,6.90
2017-11-03T14:55:14.775Z,8.43
2017-11-03T14:57:42.270Z,8.37
2017-11-03T15:00:09.893Z,8.43
2017-11-03T15:02:37.391Z,8.50
2017-11-03T15:05:04.888Z,7.83
2017-11-03T15:07:32.855Z,9.00
2017-11-03T15:10:00.367Z,8.97
2017-11-03T15:12:28.273Z,9.20
2017-11-03T15:14:55.846Z,9.57
2017-11-03T15:17:23.458Z,9.47
2017-11-03T15:19:51.167Z,9.97
2017-11-03T15:22:18.694Z,9.00
2017-11-03T15:24:46.971Z,8.83
2017-11-03T15:27:15.236Z,9.57
2017-11-03T15:29:43.143Z,8.60
2017-11-03T15:32:10.642Z,9.20
2017-11-03T15:34:38.746Z,9.53
2017-11-03T15:37:07.600Z,10.30
2017-11-03T15:39:35.296Z,9.67
2017-11-03T15:42:02.799Z,10.50
2017-11-03T15:44:31.224Z,9.67
2017-11-03T15:46:58.727Z,10.37
2017-11-03T15:49:26.227Z,11.33
2017-11-03T15:51:53.740Z,10.30
2017-11-03T15:54:21.668Z,10.37
2017-11-03T15:56:49.176Z,9.87
2017-11-03T15:59:16.690Z,10.10
2017-11-03T16:01:44.223Z,9.60
2017-11-03T16:04:12.855Z,9.60
2017-11-03T16:06:40.394Z,9.67
2017-11-03T16:09:07.899Z,9.50
2017-11-03T16:11:36.919Z,10.27
2017-11-03T16:14:04.423Z,11.50
2017-11-03T16:16:32.010Z,9.17
2017-11-03T16:18:59.527Z,9.73
2017-11-03T16:21:27.033Z,9.67
2017-11-03T16:23:54.589Z,9.90
2017-11-03T16:26:22.097Z,8.00
2017-11-03T16:28:49.603Z,8.53
2017-11-03T16:31:18.787Z,8.80
2017-11-03T16:33:46.282Z,8.80
2017-11-03T16:36:13.790Z,9.80
2017-11-03T16:38:42.432Z,8.80
2017-11-03T16:41:09.931Z,8.80
2017-11-03T16:43:37.439Z,8.53
2017-11-03T16:46:06.292Z,9.90
2017-11-03T16:48:34.566Z,9.23
2017-11-03T16:51:02.077Z,8.70
2017-11-03T16:53:29.982Z,9.27
2017-11-03T16:55:57.486Z,9.43
2017-11-03T16:58:24.986Z,10.67
2017-11-03T17:00:52.942Z,9.83
2017-11-03T17:03:21.028Z,9.37
2017-11-03T17:05:48.547Z,14.00
2017-11-03T17:08:16.459Z,13.03
2017-11-03T17:10:44.819Z,10.60
2017-11-03T17:13:12.335Z,11.53
2017-11-03T17:15:41.160Z,10.43
2017-11-03T17:18:08.703Z,12.63
2017-11-03T17:20:36.212Z,10.73
2017-11-03T17:23:03.728Z,11.63
2017-11-03T17:25:32.598Z,10.23
2017-11-03T17:28:00.095Z,10.63
2017-11-03T17:30:27.611Z,10.23
2017-11-03T17:32:55.123Z,11.07
2017-11-03T17:35:22.659Z,11.50
2017-11-03T17:37:51.680Z,12.63
2017-11-03T17:40:19.185Z,12.57
2017-11-03T17:42:47.567Z,11.77
2017-11-03T17:45:15.068Z,12.07
2017-11-03T17:47:42.571Z,12.47
2017-11-03T17:50:10.200Z,11.43
2017-11-03T17:52:37.871Z,12.40
2017-11-03T17:55:05.387Z,12.60
2017-11-03T17:57:34.030Z,12.27
2017-11-03T18:00:02.487Z,13.90
2017-11-03T18:02:29.991Z,12.17
2017-11-03T18:04:57.546Z,12.13
2017-11-03T18:07:25.061Z,12.40
2017-11-03T18:09:52.551Z,12.17
2017-11-03T18:12:20.054Z,12.27
2017-11-03T18:14:47.956Z,11.63
2017-11-03T18:17:15.475Z,12.47
2017-11-03T18:19:43.139Z,12.43
2017-11-03T18:22:10.639Z,13.33
2017-11-03T18:24:38.131Z,12.20
2017-11-03T18:27:06.032Z,12.00
2017-11-03T18:29:33.590Z,10.83
2017-11-03T18:32:02.603Z,9.77
2017-11-03T18:34:30.150Z,10.93
2017-11-03T18:36:58.786Z,10.03
2017-11-03T18:39:26.283Z,10.33
2017-11-03T18:41:53.782Z,10.77
2017-11-03T18:44:22.059Z,12.90
2017-11-03T18:46:50.339Z,12.93
2017-11-03T18:49:18.678Z,10.70
2017-11-03T18:51:47.550Z,11.73
2017-11-03T18:54:15.815Z,12.70
2017-11-03T18:56:43.329Z,13.87
2017-11-03T18:59:11.619Z,14.83
2017-11-03T19:01:39.131Z,13.73
2017-11-03T19:04:07.401Z,12.57
2017-11-03T19:06:34.974Z,11.10
2017-11-03T19:09:02.517Z,11.93
2017-11-03T19:11:30.845Z,13.10
2017-11-03T19:13:58.378Z,11.33
2017-11-03T19:16:26.687Z,10.40
2017-11-03T19:18:54.174Z,11.13
2017-11-03T19:21:23.110Z,11.83
2017-11-03T19:23:51.054Z,11.27
2017-11-03T19:26:18.588Z,12.03
2017-11-03T19:28:46.142Z,11.90
2017-11-03T19:31:13.694Z,11.57
2017-11-03T19:33:42.327Z,10.80
2017-11-03T19:36:09.992Z,10.30
2017-11-03T19:38:37.557Z,11.20
2017-11-03T19:41:05.159Z,10.93
2017-11-03T19:43:32.812Z,11.67
2017-11-03T19:46:01.146Z,12.40
2017-11-03T19:48:28.659Z,10.37
2017-11-03T19:50:56.928Z,11.27
2017-11-03T19:53:25.083Z,10.50
2017-11-03T19:55:52.631Z,11.40
2017-11-03T19:58:21.531Z,11.30
2017-11-03T20:00:49.863Z,11.30
2017-11-03T20:03:18.883Z,10.80
2017-11-03T20:05:46.438Z,11.07
2017-11-03T20:08:14.110Z,10.93
2017-11-03T20:10:41.772Z,12.20
2017-11-03T20:13:09.271Z,11.17
2017-11-03T20:15:36.827Z,10.30
2017-11-03T20:18:05.682Z,11.33
2017-11-03T20:20:33.179Z,11.13
2017-11-03T20:23:01.507Z,10.77
2017-11-03T20:25:29.768Z,11.10
2017-11-03T20:27:57.276Z,12.87
2017-11-03T20:30:24.820Z,13.10
2017-11-03T20:32:52.771Z,11.40
2017-11-03T20:35:21.182Z,13.87
2017-11-03T20:37:48.684Z,18.67
2017-11-03T20:40:16.288Z,14.50
2017-11-03T20:42:43.787Z,13.57
2017-11-03T20:45:11.338Z,13.23
2017-11-03T20:47:39.237Z,13.70
2017-11-03T20:50:06.736Z,15.87
2017-11-03T20:52:34.243Z,17.50
2017-11-03T20:55:02.520Z,17.80
2017-11-03T20:57:31.587Z,16.77
2017-11-03T21:00:00.650Z,16.33
2017-11-03T21:02:28.171Z,14.47
2017-11-03T21:04:56.490Z,13.87
2017-11-03T21:07:25.148Z,10.73
2017-11-03T21:09:52.706Z,11.70
2017-11-03T21:12:20.640Z,11.40
2017-11-03T21:14:48.195Z,11.17
2017-11-03T21:17:15.759Z,10.27
2017-11-03T21:19:43.256Z,10.23
2017-11-03T21:22:10.831Z,11.67
2017-11-03T21:24:38.336Z,10.17
2017-11-03T21:27:05.910Z,10.47
2017-11-03T21:29:33.979Z,10.53
2017-11-03T21:32:01.550Z,11.07
2017-11-03T21:34:29.871Z,12.60
2017-11-03T21:36:57.396Z,11.40
2017-11-03T21:39:24.941Z,12.40
2017-11-03T21:41:52.527Z,11.60
2017-11-03T21:44:20.440Z,11.97
2017-11-03T21:46:48.018Z,11.70
2017-11-03T21:49:15.519Z,12.67
2017-11-03T21:51:43.078Z,12.43
2017-11-03T21:54:11.037Z,12.13
2017-11-03T21:56:39.303Z,12.33
2017-11-03T21:59:07.623Z,13.13
2017-11-03T22:01:36.307Z,13.10
2017-11-03T22:04:03.799Z,11.20
2017-11-03T22:06:32.877Z,12.27
2017-11-03T22:09:01.869Z,11.50
2017-11-03T22:11:29.413Z,11.23
2017-11-03T22:13:56.911Z,12.27
2017-11-03T22:16:24.463Z,11.83
2017-11-03T22:18:52.728Z,14.07
2017-11-03T22:21:20.995Z,12.87
2017-11-03T22:23:49.261Z,14.20
2017-11-03T22:26:16.755Z,12.30
2017-11-03T22:28:44.251Z,11.47
2017-11-03T22:31:11.756Z,12.60
2017-11-03T22:33:39.258Z,10.60
2017-11-03T22:36:06.756Z,11.77
2017-11-03T22:38:35.015Z,12.07
2017-11-03T22:41:02.908Z,11.63
2017-11-03T22:43:31.546Z,10.70
2017-11-03T22:45:59.051Z,11.27
2017-11-03T22:48:26.948Z,11.07
2017-11-03T22:50:54.889Z,10.63
2017-11-03T22:53:23.739Z,11.77
2017-11-03T22:55:51.278Z,11.57
2017-11-03T22:58:20.291Z,11.17
2017-11-03T23:00:48.196Z,11.03
2017-11-03T23:03:17.046Z,10.80
2017-11-03T23:05:44.953Z,10.83
2017-11-03T23:08:13.231Z,9.70
2017-11-03T23:10:40.719Z,9.93
2017-11-03T23:13:08.232Z,10.53
2017-11-03T23:15:37.004Z,11.10
2017-11-03T23:18:04.523Z,9.30
2017-11-03T23:20:32.016Z,9.90
2017-11-03T23:23:00.883Z,9.33
2017-11-03T23:25:29.895Z,8.70
2017-11-03T23:27:57.410Z,9.33
2017-11-03T23:30:25.299Z,8.80
2017-11-03T23:32:53.220Z,10.60
2017-11-03T23:35:20.717Z,8.90
2017-11-03T23:37:48.247Z,9.13
2017-11-03T23:40:17.106Z,9.50
2017-11-03T23:42:45.756Z,8.80
2017-11-03T23:45:13.379Z,9.50
2017-11-03T23:47:40.907Z,8.80
2017-11-03T23:50:08.400Z,8.20
2017-11-03T23:52:36.679Z,9.37
2017-11-03T23:55:04.950Z,8.60
2017-11-03T23:57:32.471Z,9.97
